Time;durP1;ratioP1;P1;durP2;ratioP2;P2;SDS_P1;SDS_P2;PMS_P1;PMS_P2;Temp;Humidity;BMP_temperature;BMP_pressure;BME280_temperature;BME280_humidity;BME280_pressure;Samples;Min_cycle;Max_cycle;Signal;HPM_P1;HPM_P2
2022/02/05 00:01:52;;;;;;;77.77;51.77;;;;;;;;;;5004365;28;20042;-61
2022/02/05 00:04:19;;;;;;;77.97;50.67;;;;;;;;;;5012637;28;20493;-61
2022/02/05 00:06:50;;;;;;;75.93;49.63;;;;;;;;;;5014618;28;20087;-61
2022/02/05 00:09:32;;;;;;;77.57;49.33;;;;;;;;;;5014320;28;20076;-61
2022/02/05 00:12:15;;;;;;;78.13;50.87;;;;;;;;;;5015135;28;20029;-61
2022/02/05 00:39:43;;;;;;;80.50;51.55;;;;;;;;;;5018444;28;20041;-62
2022/02/05 00:42:25;;;;;;;79.30;51.80;;;;;;;;;;5012254;28;20045;-62
2022/02/05 00:44:51;;;;;;;80.97;51.57;;;;;;;;;;5012881;28;20029;-62
2022/02/05 00:47:17;;;;;;;86.07;55.27;;;;;;;;;;5012605;28;20045;-61
2022/02/05 00:49:46;;;;;;;78.43;51.63;;;;;;;;;;5013354;28;20029;-62
2022/02/05 00:52:15;;;;;;;75.00;49.33;;;;;;;;;;5014372;28;20393;-62
2022/02/05 00:54:46;;;;;;;82.17;52.30;;;;;;;;;;5013246;28;20022;-62
2022/02/05 00:57:31;;;;;;;84.17;53.93;;;;;;;;;;5011546;28;20036;-62
2022/02/05 00:59:57;;;;;;;79.85;51.70;;;;;;;;;;5013503;28;20030;-62
2022/02/05 01:02:23;;;;;;;81.10;51.33;;;;;;;;;;5014073;28;20112;-62
2022/02/05 01:04:49;;;;;;;83.23;51.87;;;;;;;;;;5011570;28;20108;-62
2022/02/05 01:07:18;;;;;;;73.63;50.87;;;;;;;;;;5014048;28;20088;-62
2022/02/05 01:09:47;;;;;;;80.93;52.10;;;;;;;;;;5012952;28;20503;-62
2022/02/05 01:12:13;;;;;;;77.13;50.87;;;;;;;;;;5013977;28;20116;-62
2022/02/05 01:14:49;;;;;;;79.63;51.60;;;;;;;;;;5012953;28;20057;-61
2022/02/05 01:17:17;;;;;;;81.00;52.40;;;;;;;;;;5012666;28;20030;-61
2022/02/05 01:20:53;;;;;;;80.87;50.97;;;;;;;;;;5012747;28;20037;-62
2022/02/05 01:22:32;;;;;;;79.97;51.67;;;;;;;;;;5010111;28;20030;-62
2022/02/05 01:24:58;;;;;;;78.07;50.03;;;;;;;;;;5012930;28;20104;-62
2022/02/05 01:27:42;;;;;;;78.47;53.40;;;;;;;;;;5013765;28;20487;-62
2022/02/05 01:30:28;;;;;;;78.13;52.50;;;;;;;;;;5012438;28;20104;-62
2022/02/05 01:33:11;;;;;;;75.63;53.00;;;;;;;;;;5012762;28;20117;-62
2022/02/05 01:57:47;;;;;;;75.53;49.47;;;;;;;;;;5013374;28;19910;-62
2022/02/05 02:05:39;;;;;;;68.87;49.40;;;;;;;;;;5011638;28;20105;-61
2022/02/05 02:11:18;;;;;;;71.55;47.80;;;;;;;;;;5017403;28;20091;-62
2022/02/05 02:21:28;;;;;;;68.70;46.30;;;;;;;;;;5017265;28;20073;-62
2022/02/05 02:24:17;;;;;;;74.03;47.17;;;;;;;;;;5016229;28;20037;-62
2022/02/05 02:30:07;;;;;;;65.37;44.93;;;;;;;;;;5016206;28;20021;-62
2022/02/05 02:32:05;;;;;;;68.10;45.37;;;;;;;;;;5012946;28;20030;-62
2022/02/05 02:34:36;;;;;;;63.40;43.77;;;;;;;;;;5016429;28;20022;-62
2022/02/05 02:37:15;;;;;;;71.57;45.87;;;;;;;;;;5017051;28;20382;-62
2022/02/05 02:42:21;;;;;;;68.47;44.00;;;;;;;;;;5015952;28;20455;-62
2022/02/05 02:44:47;;;;;;;61.57;44.77;;;;;;;;;;5016396;28;20028;-62
2022/02/05 02:47:14;;;;;;;74.00;44.93;;;;;;;;;;5015525;28;20022;-62
2022/02/05 02:58:06;;;;;;;61.73;42.77;;;;;;;;;;5006617;28;20022;-62
2022/02/05 03:00:32;;;;;;;63.30;42.63;;;;;;;;;;5015585;28;20065;-62
2022/02/05 03:02:58;;;;;;;62.57;41.87;;;;;;;;;;5014671;28;20033;-62
2022/02/05 03:05:24;;;;;;;63.53;44.80;;;;;;;;;;5015091;28;20026;-62
2022/02/05 03:07:50;;;;;;;68.20;48.13;;;;;;;;;;5015314;28;20026;-62
2022/02/05 03:10:17;;;;;;;79.40;50.00;;;;;;;;;;5014864;28;20029;-62
2022/02/05 03:12:43;;;;;;;74.63;48.87;;;;;;;;;;5013926;28;20437;-62
2022/02/05 03:15:18;;;;;;;76.63;49.93;;;;;;;;;;5016130;28;20056;-62
2022/02/05 03:18:05;;;;;;;79.88;49.85;;;;;;;;;;5015338;28;20489;-62
2022/02/05 03:20:31;;;;;;;76.43;50.17;;;;;;;;;;5013564;28;20066;-61
2022/02/05 03:22:58;;;;;;;81.60;51.37;;;;;;;;;;5015163;28;20026;-62
2022/02/05 03:25:24;;;;;;;80.57;52.40;;;;;;;;;;5015905;28;20042;-62
2022/02/05 03:27:50;;;;;;;82.50;52.03;;;;;;;;;;5013167;28;20071;-62
2022/02/05 03:30:16;;;;;;;78.43;51.73;;;;;;;;;;5014518;28;20116;-62
2022/02/05 03:32:42;;;;;;;81.17;51.70;;;;;;;;;;5014653;28;20054;-62
2022/02/05 03:35:08;;;;;;;76.67;51.77;;;;;;;;;;5015678;28;20483;-62
2022/02/05 03:37:34;;;;;;;73.40;49.47;;;;;;;;;;5013178;28;20026;-62
2022/02/05 03:40:00;;;;;;;70.50;49.77;;;;;;;;;;5015466;28;20041;-62
2022/02/05 03:42:26;;;;;;;70.53;47.90;;;;;;;;;;5014829;28;20026;-62
2022/02/05 03:44:52;;;;;;;73.83;48.87;;;;;;;;;;5015366;28;20372;-62
2022/02/05 03:47:18;;;;;;;72.77;49.23;;;;;;;;;;5015337;28;20472;-61
2022/02/05 03:49:44;;;;;;;71.30;48.23;;;;;;;;;;5014743;28;20038;-62
2022/02/05 03:52:10;;;;;;;65.17;46.77;;;;;;;;;;5015303;28;20025;-62
2022/02/05 03:54:36;;;;;;;69.43;48.03;;;;;;;;;;4996644;28;20057;-62
2022/02/05 03:57:02;;;;;;;74.00;50.00;;;;;;;;;;5002590;28;20030;-62
2022/02/05 03:59:28;;;;;;;76.27;49.27;;;;;;;;;;5014264;28;20030;-61
2022/02/05 04:01:55;;;;;;;71.37;48.00;;;;;;;;;;5015170;28;20041;-62
2022/02/05 04:04:22;;;;;;;73.87;48.00;;;;;;;;;;5013984;28;20026;-62
2022/02/05 04:06:48;;;;;;;72.53;48.23;;;;;;;;;;5015401;28;20114;-62
2022/02/05 04:09:22;;;;;;;68.30;46.93;;;;;;;;;;5012175;28;20037;-62
2022/02/05 04:16:59;;;;;;;71.00;48.42;;;;;;;;;;5015323;28;20552;-62
2022/02/05 04:19:25;;;;;;;70.87;46.07;;;;;;;;;;5012495;28;20490;-62
2022/02/05 04:21:52;;;;;;;69.50;47.47;;;;;;;;;;5014880;28;20046;-62
2022/02/05 04:24:18;;;;;;;68.27;47.23;;;;;;;;;;5013751;28;20541;-62
2022/02/05 04:26:44;;;;;;;72.53;47.80;;;;;;;;;;5014699;28;20030;-62
2022/02/05 04:29:10;;;;;;;65.00;45.93;;;;;;;;;;5014262;28;20084;-62
2022/02/05 04:31:37;;;;;;;77.77;48.50;;;;;;;;;;5014309;28;20030;-61
2022/02/05 04:34:04;;;;;;;72.97;46.57;;;;;;;;;;5013844;28;20025;-62
2022/02/05 04:36:30;;;;;;;68.47;46.53;;;;;;;;;;5014367;28;20100;-62
2022/02/05 04:39:00;;;;;;;69.60;44.03;;;;;;;;;;5012859;28;20041;-62
2022/02/05 04:41:45;;;;;;;66.23;45.00;;;;;;;;;;5013141;28;20036;-62
2022/02/05 04:47:36;;;;;;;65.00;45.17;;;;;;;;;;5014422;28;20033;-62
2022/02/05 05:03:06;;;;;;;59.20;42.50;;;;;;;;;;4992465;28;20133;-62
2022/02/05 05:07:46;;;;;;;57.47;41.47;;;;;;;;;;5006292;28;20070;-62
2022/02/05 05:21:24;;;;;;;51.13;38.20;;;;;;;;;;5013076;28;20096;-62
2022/02/05 05:23:50;;;;;;;48.03;36.67;;;;;;;;;;5009246;28;20493;-62
2022/02/05 05:26:16;;;;;;;50.00;36.73;;;;;;;;;;5014062;28;20088;-62
2022/02/05 05:28:42;;;;;;;50.50;38.60;;;;;;;;;;5010472;28;20025;-62
2022/02/05 05:31:08;;;;;;;48.67;36.73;;;;;;;;;;5013952;28;20030;-62
2022/02/05 05:33:59;;;;;;;49.70;38.83;;;;;;;;;;5012838;28;20045;-62
2022/02/05 05:36:25;;;;;;;45.80;37.23;;;;;;;;;;5010479;28;20084;-62
2022/02/05 05:38:52;;;;;;;52.83;37.97;;;;;;;;;;5016067;28;20033;-62
2022/02/05 05:41:18;;;;;;;46.17;36.63;;;;;;;;;;4992603;28;20056;-62
2022/02/05 05:49:17;;;;;;;50.43;38.80;;;;;;;;;;4999339;28;20042;-62
2022/02/05 05:51:48;;;;;;;53.67;38.60;;;;;;;;;;5011466;28;20025;-62
2022/02/05 05:54:14;;;;;;;58.00;42.90;;;;;;;;;;5012355;28;20032;-61
2022/02/05 05:56:41;;;;;;;57.73;42.23;;;;;;;;;;5013310;28;20523;-61
2022/02/05 05:59:08;;;;;;;57.90;43.43;;;;;;;;;;5011093;28;20434;-62
2022/02/05 06:01:36;;;;;;;57.50;41.80;;;;;;;;;;5013160;28;20034;-61
2022/02/05 06:04:02;;;;;;;55.30;40.30;;;;;;;;;;5012358;28;20018;-61
2022/02/05 06:06:28;;;;;;;56.10;39.83;;;;;;;;;;5013224;28;20082;-61
2022/02/05 06:08:54;;;;;;;54.80;40.67;;;;;;;;;;5011344;28;20115;-61
2022/02/05 06:11:20;;;;;;;55.63;41.23;;;;;;;;;;5013108;28;20029;-62
2022/02/05 06:13:46;;;;;;;55.97;41.43;;;;;;;;;;5012160;28;20088;-61
2022/02/05 06:16:16;;;;;;;60.63;42.80;;;;;;;;;;5012965;28;20113;-61
2022/02/05 06:18:42;;;;;;;52.57;42.30;;;;;;;;;;5010948;28;20521;-61
2022/02/05 06:21:08;;;;;;;59.43;42.30;;;;;;;;;;5013106;28;20034;-61
2022/02/05 06:23:34;;;;;;;56.27;41.90;;;;;;;;;;5012999;28;20083;-61
2022/02/05 06:26:00;;;;;;;59.67;42.97;;;;;;;;;;5012576;28;20030;-61
2022/02/05 06:28:26;;;;;;;60.67;42.73;;;;;;;;;;5013039;28;20056;-61
2022/02/05 06:30:52;;;;;;;65.23;42.97;;;;;;;;;;5012222;28;20029;-61
2022/02/05 06:33:37;;;;;;;62.40;43.47;;;;;;;;;;5012890;28;20037;-61
2022/02/05 06:36:03;;;;;;;61.57;44.40;;;;;;;;;;5012692;28;20066;-61
2022/02/05 06:38:29;;;;;;;62.40;43.90;;;;;;;;;;5011654;28;20030;-61
2022/02/05 06:40:55;;;;;;;66.27;46.03;;;;;;;;;;5011767;28;20049;-61
2022/02/05 06:43:21;;;;;;;65.33;43.70;;;;;;;;;;5012795;28;20026;-61
2022/02/05 06:45:47;;;;;;;65.00;45.60;;;;;;;;;;5011903;28;20022;-62
2022/02/05 06:48:14;;;;;;;64.73;44.17;;;;;;;;;;5011965;28;20129;-61
2022/02/05 06:50:40;;;;;;;66.80;45.93;;;;;;;;;;5011113;28;20034;-61
2022/02/05 06:53:06;;;;;;;65.87;46.23;;;;;;;;;;5012771;28;20033;-62
2022/02/05 06:55:33;;;;;;;66.23;46.13;;;;;;;;;;5015237;28;20109;-61
2022/02/05 06:57:59;;;;;;;67.80;45.57;;;;;;;;;;5016660;28;20041;-61
2022/02/05 07:00:25;;;;;;;66.23;45.80;;;;;;;;;;5014679;28;20049;-61
2022/02/05 07:02:51;;;;;;;58.73;43.77;;;;;;;;;;5016498;28;20026;-62
2022/02/05 07:05:17;;;;;;;64.23;43.50;;;;;;;;;;5015497;28;20041;-61
2022/02/05 07:07:43;;;;;;;61.10;41.23;;;;;;;;;;5016154;28;20038;-62
2022/02/05 07:10:10;;;;;;;60.33;41.33;;;;;;;;;;5015214;28;20034;-61
2022/02/05 07:12:48;;;;;;;64.87;42.47;;;;;;;;;;5016171;28;20040;-61
2022/02/05 07:15:20;;;;;;;58.20;43.17;;;;;;;;;;5015309;28;20033;-61
2022/02/05 07:20:40;;;;;;;59.93;40.33;;;;;;;;;;5013904;28;20566;-61
2022/02/05 07:31:14;;;;;;;66.07;47.10;;;;;;;;;;5014667;28;20049;-60
2022/02/05 07:33:40;;;;;;;77.13;49.63;;;;;;;;;;5015781;28;20033;-61
2022/02/05 07:36:06;;;;;;;74.07;48.90;;;;;;;;;;5013306;28;20030;-60
2022/02/05 07:38:33;;;;;;;75.33;51.10;;;;;;;;;;5015759;28;20033;-61
2022/02/05 07:40:59;;;;;;;74.27;49.47;;;;;;;;;;5014857;28;20134;-61
2022/02/05 07:43:26;;;;;;;76.80;50.53;;;;;;;;;;5015741;28;20160;-61
2022/02/05 07:46:12;;;;;;;75.90;51.83;;;;;;;;;;5014225;28;20057;-61
2022/02/05 07:48:38;;;;;;;75.13;48.97;;;;;;;;;;5012402;28;20538;-61
2022/02/05 07:51:05;;;;;;;79.57;51.33;;;;;;;;;;5015484;28;20061;-61
2022/02/05 07:53:31;;;;;;;77.63;50.17;;;;;;;;;;5014512;28;20026;-61
2022/02/05 07:55:58;;;;;;;79.03;50.37;;;;;;;;;;5015333;28;20529;-61
2022/02/05 07:58:24;;;;;;;74.90;49.80;;;;;;;;;;5014315;28;20029;-61
2022/02/05 08:00:52;;;;;;;73.97;50.60;;;;;;;;;;5015042;28;20502;-61
2022/02/05 08:03:18;;;;;;;71.53;48.90;;;;;;;;;;5014468;28;20058;-61
2022/02/05 08:05:44;;;;;;;78.77;52.63;;;;;;;;;;5013396;28;20034;-61
2022/02/05 08:08:14;;;;;;;78.53;52.73;;;;;;;;;;5014503;28;20430;-61
2022/02/05 08:10:48;;;;;;;79.47;51.77;;;;;;;;;;5015413;28;20022;-60
2022/02/05 08:13:14;;;;;;;76.60;50.92;;;;;;;;;;5013071;28;20072;-61
2022/02/05 08:15:41;;;;;;;80.87;52.20;;;;;;;;;;5013125;28;20077;-61
2022/02/05 08:18:07;;;;;;;82.43;51.40;;;;;;;;;;5014305;28;20044;-61
2022/02/05 08:20:33;;;;;;;85.37;51.80;;;;;;;;;;5013614;28;20026;-62
2022/02/05 08:22:59;;;;;;;80.83;51.73;;;;;;;;;;5012519;28;20045;-61
2022/02/05 08:25:27;;;;;;;84.23;52.53;;;;;;;;;;5014530;28;20026;-60
2022/02/05 08:27:53;;;;;;;78.57;51.50;;;;;;;;;;5011568;28;20084;-60
2022/02/05 08:30:19;;;;;;;84.47;52.20;;;;;;;;;;5014373;28;20053;-61
2022/02/05 08:32:45;;;;;;;81.43;51.07;;;;;;;;;;5013236;28;20849;-60
2022/02/05 08:35:12;;;;;;;80.17;53.03;;;;;;;;;;5014695;28;20051;-61
2022/02/05 08:37:39;;;;;;;84.90;54.07;;;;;;;;;;5013483;28;20494;-61
2022/02/05 08:40:06;;;;;;;84.50;51.30;;;;;;;;;;5014543;28;20515;-61
2022/02/05 08:42:32;;;;;;;83.20;52.67;;;;;;;;;;5013660;28;20030;-61
2022/02/05 08:44:58;;;;;;;81.97;52.83;;;;;;;;;;5013645;28;20036;-61
2022/02/05 08:47:24;;;;;;;79.77;53.73;;;;;;;;;;5014275;28;20045;-61
2022/02/05 08:49:52;;;;;;;90.97;51.83;;;;;;;;;;5013606;28;20058;-60
2022/02/05 08:52:18;;;;;;;85.93;53.70;;;;;;;;;;5014415;28;20502;-61
2022/02/05 08:54:44;;;;;;;81.87;53.37;;;;;;;;;;5016675;28;20057;-60
2022/02/05 08:57:11;;;;;;;74.73;49.97;;;;;;;;;;5029213;28;20021;-61
2022/02/05 08:59:51;;;;;;;74.33;48.97;;;;;;;;;;5029215;28;20033;-60
2022/02/05 09:02:34;;;;;;;69.37;47.03;;;;;;;;;;5032032;28;20029;-61
2022/02/05 09:07:35;;;;;;;98.40;55.57;;;;;;;;;;5014687;28;20036;-60
2022/02/05 09:10:12;;;;;;;75.53;47.50;;;;;;;;;;5012386;28;20037;-60
2022/02/05 09:15:07;;;;;;;70.80;47.57;;;;;;;;;;5012567;28;20030;-60
2022/02/05 09:17:33;;;;;;;70.47;47.57;;;;;;;;;;5013014;28;20030;-60
2022/02/05 09:19:59;;;;;;;68.03;46.17;;;;;;;;;;5020232;28;20065;-60
2022/02/05 09:22:29;;;;;;;67.50;45.00;;;;;;;;;;5032002;28;20037;-60
2022/02/05 09:24:57;;;;;;;66.30;46.07;;;;;;;;;;5014568;28;20030;-60
2022/02/05 09:27:24;;;;;;;68.78;45.92;;;;;;;;;;5013712;28;20030;-60
2022/02/05 09:30:00;;;;;;;62.80;44.50;;;;;;;;;;5011926;28;20049;-60
2022/02/05 09:32:27;;;;;;;64.63;43.60;;;;;;;;;;5031224;28;20053;-60
2022/02/05 09:34:53;;;;;;;64.27;44.03;;;;;;;;;;5030812;28;20033;-61
2022/02/05 09:37:20;;;;;;;64.47;46.93;;;;;;;;;;5030168;28;20387;-60
2022/02/05 09:39:46;;;;;;;62.53;45.47;;;;;;;;;;5011690;28;20552;-60
2022/02/05 09:42:12;;;;;;;67.47;45.33;;;;;;;;;;5012187;28;20084;-60
2022/02/05 09:44:38;;;;;;;73.90;57.27;;;;;;;;;;5012638;28;20026;-60
2022/02/05 09:47:04;;;;;;;60.33;46.73;;;;;;;;;;5009487;28;20030;-59
2022/02/05 09:49:30;;;;;;;59.17;42.47;;;;;;;;;;5023861;28;20026;-60
2022/02/05 09:52:23;;;;;;;64.83;43.53;;;;;;;;;;5011298;28;20041;-60
2022/02/05 09:54:45;;;;;;;61.80;44.47;;;;;;;;;;5007138;28;20121;-60
2022/02/05 09:57:11;;;;;;;65.43;43.97;;;;;;;;;;5011520;28;20387;-60
2022/02/05 09:59:48;;;;;;;69.83;48.20;;;;;;;;;;5010467;28;20040;-60
2022/02/05 10:02:21;;;;;;;67.43;46.93;;;;;;;;;;5004245;28;20037;-60
2022/02/05 10:04:55;;;;;;;66.73;45.80;;;;;;;;;;5007092;28;20026;-61
2022/02/05 10:07:21;;;;;;;66.27;44.53;;;;;;;;;;5022710;28;20033;-61
2022/02/05 10:09:57;;;;;;;68.67;47.20;;;;;;;;;;5009748;28;20042;-61
2022/02/05 10:12:23;;;;;;;74.30;48.97;;;;;;;;;;5009963;28;20543;-61
2022/02/05 10:14:55;;;;;;;65.77;45.07;;;;;;;;;;5008036;28;20105;-61
2022/02/05 10:17:21;;;;;;;66.00;45.97;;;;;;;;;;5010945;28;20034;-61
2022/02/05 10:19:48;;;;;;;67.97;46.53;;;;;;;;;;5009582;28;20038;-61
2022/02/05 10:22:15;;;;;;;69.37;46.50;;;;;;;;;;5008011;28;20156;-61
2022/02/05 10:24:51;;;;;;;73.97;47.90;;;;;;;;;;5007332;28;20375;-61
2022/02/05 10:27:26;;;;;;;70.93;47.70;;;;;;;;;;5010523;28;20468;-61
2022/02/05 10:30:09;;;;;;;75.47;51.50;;;;;;;;;;5010492;28;20100;-61
2022/02/05 10:47:53;;;;;;;75.83;51.10;;;;;;;;;;5009657;28;20418;-61
2022/02/05 10:50:21;;;;;;;82.60;53.60;;;;;;;;;;4981234;28;20026;-61
2022/02/05 10:52:52;;;;;;;79.53;53.63;;;;;;;;;;4998240;28;20026;-61
2022/02/05 10:55:29;;;;;;;81.90;52.13;;;;;;;;;;5001903;28;20026;-62
2022/02/05 11:05:43;;;;;;;75.63;51.78;;;;;;;;;;5001838;28;20069;-61
2022/02/05 11:08:09;;;;;;;75.05;50.67;;;;;;;;;;5000524;28;20088;-61
2022/02/05 11:10:56;;;;;;;71.80;52.10;;;;;;;;;;5003880;28;20037;-61
2022/02/05 11:16:08;;;;;;;70.70;50.10;;;;;;;;;;5002613;28;20045;-61
2022/02/05 11:18:50;;;;;;;70.60;50.73;;;;;;;;;;4998827;28;20030;-61
2022/02/05 11:21:18;;;;;;;80.87;52.53;;;;;;;;;;5002469;28;20499;-61
2022/02/05 11:23:45;;;;;;;79.37;52.50;;;;;;;;;;5006253;28;20018;-62
2022/02/05 11:26:11;;;;;;;76.85;52.38;;;;;;;;;;5001629;28;20096;-61
2022/02/05 11:28:41;;;;;;;77.80;53.58;;;;;;;;;;4999706;28;20023;-60
2022/02/05 11:31:29;;;;;;;79.63;51.50;;;;;;;;;;4998264;28;20034;-61
2022/02/05 11:34:10;;;;;;;73.70;52.57;;;;;;;;;;4994913;28;20456;-61
2022/02/05 11:36:39;;;;;;;79.43;56.10;;;;;;;;;;4995107;28;20031;-61
2022/02/05 11:39:05;;;;;;;74.30;51.85;;;;;;;;;;4995228;28;20450;-60
2022/02/05 11:41:33;;;;;;;73.93;51.80;;;;;;;;;;4995200;28;20061;-61
2022/02/05 11:44:19;;;;;;;71.20;51.22;;;;;;;;;;4994879;28;20034;-60
2022/02/05 11:47:04;;;;;;;76.28;51.78;;;;;;;;;;4995890;28;20054;-60
2022/02/05 11:49:48;;;;;;;78.65;54.70;;;;;;;;;;4995405;28;20116;-60
2022/02/05 11:52:34;;;;;;;76.40;53.42;;;;;;;;;;4994654;28;20133;-60
2022/02/05 11:55:01;;;;;;;80.47;55.13;;;;;;;;;;4995141;28;20033;-60
2022/02/05 11:57:53;;;;;;;81.53;53.67;;;;;;;;;;4995102;28;20468;-59
2022/02/05 12:00:23;;;;;;;73.20;53.00;;;;;;;;;;4987733;28;20046;-59
2022/02/05 12:05:20;;;;;;;78.90;54.20;;;;;;;;;;4995164;28;20121;-60
2022/02/05 12:08:02;;;;;;;75.27;52.10;;;;;;;;;;4995776;28;20477;-60
2022/02/05 12:10:51;;;;;;;75.90;52.40;;;;;;;;;;4994858;28;20041;-60
2022/02/05 12:13:23;;;;;;;73.37;51.63;;;;;;;;;;4994974;28;20036;-60
2022/02/05 12:15:55;;;;;;;71.30;51.13;;;;;;;;;;4976295;28;20049;-60
2022/02/05 12:20:52;;;;;;;67.50;50.75;;;;;;;;;;4995469;28;20105;-60
2022/02/05 12:25:59;;;;;;;69.63;52.00;;;;;;;;;;4994161;28;20034;-60
2022/02/05 12:28:35;;;;;;;68.50;49.60;;;;;;;;;;4994672;28;20053;-61
2022/02/05 12:31:02;;;;;;;70.00;50.50;;;;;;;;;;4995165;28;20440;-60
2022/02/05 12:33:43;;;;;;;63.70;48.72;;;;;;;;;;4994323;28;20049;-59
2022/02/05 12:36:09;;;;;;;72.45;49.83;;;;;;;;;;4994309;28;20094;-59
2022/02/05 12:38:39;;;;;;;67.43;49.42;;;;;;;;;;4994377;28;20065;-58
2022/02/05 12:41:07;;;;;;;69.22;50.58;;;;;;;;;;4995106;28;20073;-59
2022/02/05 12:43:52;;;;;;;69.32;50.88;;;;;;;;;;4994097;28;20018;-60
2022/02/05 12:46:19;;;;;;;71.47;51.92;;;;;;;;;;4995081;28;20125;-60
2022/02/05 12:48:50;;;;;;;69.25;50.22;;;;;;;;;;5007099;28;20060;-59
2022/02/05 12:51:16;;;;;;;72.88;52.55;;;;;;;;;;5014601;28;20021;-60
2022/02/05 12:53:43;;;;;;;68.40;49.45;;;;;;;;;;5011784;28;20044;-60
2022/02/05 12:56:13;;;;;;;73.13;53.47;;;;;;;;;;5014443;28;20029;-60
2022/02/05 12:58:54;;;;;;;72.95;54.03;;;;;;;;;;5011667;28;20033;-59
2022/02/05 13:01:20;;;;;;;77.97;54.28;;;;;;;;;;5012884;28;20060;-60
2022/02/05 13:03:46;;;;;;;75.40;53.15;;;;;;;;;;5013303;28;20072;-59
2022/02/05 13:06:16;;;;;;;75.10;54.17;;;;;;;;;;5013399;28;20034;-60
2022/02/05 13:08:46;;;;;;;75.47;53.28;;;;;;;;;;5013495;28;20036;-59
2022/02/05 13:11:12;;;;;;;73.55;52.38;;;;;;;;;;5014108;28;20105;-59
2022/02/05 13:13:48;;;;;;;75.40;53.03;;;;;;;;;;5012892;28;20018;-59
2022/02/05 13:16:14;;;;;;;77.63;53.83;;;;;;;;;;5013706;28;20079;-59
2022/02/05 13:18:48;;;;;;;78.15;52.70;;;;;;;;;;5013225;28;20025;-59
2022/02/05 13:26:58;;;;;;;78.03;55.28;;;;;;;;;;5013649;28;20037;-59
2022/02/05 13:29:39;;;;;;;79.20;56.55;;;;;;;;;;5009239;28;20021;-59
2022/02/05 13:34:50;;;;;;;81.97;56.10;;;;;;;;;;5013204;28;20540;-59
2022/02/05 13:37:25;;;;;;;76.50;55.83;;;;;;;;;;5013774;28;20033;-59
2022/02/05 13:40:01;;;;;;;76.75;56.88;;;;;;;;;;5011322;28;20458;-60
2022/02/05 13:42:30;;;;;;;79.60;55.70;;;;;;;;;;5013689;28;20029;-60
2022/02/05 13:45:03;;;;;;;87.00;58.53;;;;;;;;;;5012325;28;20029;-60
2022/02/05 13:47:36;;;;;;;83.93;59.30;;;;;;;;;;5012214;28;20384;-60
2022/02/05 13:50:05;;;;;;;80.43;56.40;;;;;;;;;;5012860;28;20446;-60
2022/02/05 13:52:43;;;;;;;78.78;57.03;;;;;;;;;;4998540;28;20022;-60
2022/02/05 13:55:29;;;;;;;78.68;56.40;;;;;;;;;;5012790;28;20124;-60
2022/02/05 13:58:05;;;;;;;83.75;58.13;;;;;;;;;;5013547;28;20468;-60
2022/02/05 14:00:40;;;;;;;80.70;57.50;;;;;;;;;;5012466;28;20041;-60
2022/02/05 14:03:08;;;;;;;82.97;56.53;;;;;;;;;;5011748;28;20040;-60
2022/02/05 14:05:35;;;;;;;83.45;56.33;;;;;;;;;;5012086;28;20057;-60
2022/02/05 14:08:03;;;;;;;75.70;55.30;;;;;;;;;;5013050;28;20041;-60
2022/02/05 14:10:31;;;;;;;82.57;57.15;;;;;;;;;;5012413;28;20109;-60
2022/02/05 14:12:59;;;;;;;81.13;58.55;;;;;;;;;;5012310;28;20021;-60
2022/02/05 14:15:28;;;;;;;81.63;57.33;;;;;;;;;;5012266;28;20037;-60
2022/02/05 14:18:04;;;;;;;82.18;58.45;;;;;;;;;;5013223;28;20483;-61
2022/02/05 14:20:30;;;;;;;82.47;57.13;;;;;;;;;;5010776;28;20034;-60
2022/02/05 14:23:10;;;;;;;82.65;57.20;;;;;;;;;;5012193;28;20033;-60
2022/02/05 14:28:51;;;;;;;79.57;56.20;;;;;;;;;;4990225;28;20038;-60
2022/02/05 14:31:28;;;;;;;78.65;55.97;;;;;;;;;;5012190;28;20399;-60
2022/02/05 14:41:54;;;;;;;81.28;58.50;;;;;;;;;;5013031;28;20041;-61
2022/02/05 14:44:20;;;;;;;79.95;57.70;;;;;;;;;;5012132;28;20030;-61
2022/02/05 14:46:47;;;;;;;82.95;56.30;;;;;;;;;;5013131;28;20153;-61
2022/02/05 14:49:13;;;;;;;82.18;58.58;;;;;;;;;;5011896;28;20045;-61
2022/02/05 14:51:43;;;;;;;83.22;58.40;;;;;;;;;;5011442;28;20049;-61
2022/02/05 14:54:09;;;;;;;80.82;58.67;;;;;;;;;;5011502;28;20506;-60
2022/02/05 14:56:35;;;;;;;84.22;60.70;;;;;;;;;;5012412;28;20030;-59
2022/02/05 14:59:01;;;;;;;86.38;58.80;;;;;;;;;;5012892;28;20102;-59
2022/02/05 15:01:27;;;;;;;85.38;60.25;;;;;;;;;;5011746;28;20045;-60
2022/02/05 15:03:55;;;;;;;89.95;59.72;;;;;;;;;;5012785;28;20048;-60
2022/02/05 15:06:25;;;;;;;85.00;59.83;;;;;;;;;;5011885;28;20463;-60
2022/02/05 15:08:51;;;;;;;85.63;58.70;;;;;;;;;;5012820;28;20026;-61
2022/02/05 15:11:18;;;;;;;83.65;59.88;;;;;;;;;;5011987;28;20498;-60
2022/02/05 15:13:44;;;;;;;86.05;59.45;;;;;;;;;;5025400;28;20383;-61
2022/02/05 15:16:12;;;;;;;87.70;61.03;;;;;;;;;;5016075;28;20173;-61
2022/02/05 15:18:47;;;;;;;90.57;62.53;;;;;;;;;;5015249;28;20014;-60
2022/02/05 15:21:13;;;;;;;84.72;60.15;;;;;;;;;;5015204;28;20120;-60
2022/02/05 15:23:39;;;;;;;89.75;60.80;;;;;;;;;;5015748;28;20591;-60
2022/02/05 15:26:06;;;;;;;83.43;59.92;;;;;;;;;;5014823;28;20058;-60
2022/02/05 15:28:33;;;;;;;91.03;61.42;;;;;;;;;;5015178;28;20109;-60
2022/02/05 15:31:01;;;;;;;91.15;62.72;;;;;;;;;;5015070;28;20037;-60
2022/02/05 15:33:27;;;;;;;89.43;62.00;;;;;;;;;;5015680;28;20022;-60
2022/02/05 15:35:57;;;;;;;92.20;63.92;;;;;;;;;;5018576;28;20029;-60
2022/02/05 15:38:34;;;;;;;88.57;59.28;;;;;;;;;;5013327;28;20431;-60
2022/02/05 15:43:53;;;;;;;89.13;61.25;;;;;;;;;;5014852;28;20084;-60
2022/02/05 15:46:20;;;;;;;92.55;61.42;;;;;;;;;;5014155;28;20033;-61
2022/02/05 15:48:47;;;;;;;97.25;61.75;;;;;;;;;;5013987;28;20046;-61
2022/02/05 15:51:13;;;;;;;94.72;63.67;;;;;;;;;;5010354;28;20487;-61
2022/02/05 15:53:48;;;;;;;94.95;61.17;;;;;;;;;;5015412;28;20033;-60
2022/02/05 15:59:01;;;;;;;92.95;61.95;;;;;;;;;;5015718;28;20040;-61
2022/02/05 16:01:27;;;;;;;88.63;60.83;;;;;;;;;;5014395;28;20034;-61
2022/02/05 16:04:21;;;;;;;96.03;64.18;;;;;;;;;;5014041;28;20028;-61
2022/02/05 16:06:47;;;;;;;94.72;61.25;;;;;;;;;;5014586;28;20454;-61
2022/02/05 16:09:13;;;;;;;92.38;61.92;;;;;;;;;;5014027;28;20030;-61
2022/02/05 16:11:39;;;;;;;92.82;61.85;;;;;;;;;;5012697;28;20034;-61
2022/02/05 16:14:05;;;;;;;92.93;61.63;;;;;;;;;;5015393;28;20029;-61
2022/02/05 16:16:31;;;;;;;90.82;61.05;;;;;;;;;;5014186;28;20026;-60
2022/02/05 16:18:57;;;;;;;89.25;57.63;;;;;;;;;;5013564;28;20113;-60
2022/02/05 16:21:24;;;;;;;92.05;58.08;;;;;;;;;;5014144;28;20045;-61
2022/02/05 16:23:52;;;;;;;84.15;60.13;;;;;;;;;;5014700;28;20050;-61
2022/02/05 16:26:18;;;;;;;84.63;59.40;;;;;;;;;;5013879;28;20038;-61
2022/02/05 16:28:44;;;;;;;92.82;61.22;;;;;;;;;;5014907;28;20018;-61
2022/02/05 16:31:10;;;;;;;88.63;61.22;;;;;;;;;;5014077;28;20399;-61
2022/02/05 16:33:39;;;;;;;88.75;61.97;;;;;;;;;;5014858;28;20108;-61
2022/02/05 16:36:10;;;;;;;84.65;59.60;;;;;;;;;;5013922;28;20041;-61
2022/02/05 16:38:38;;;;;;;90.43;62.17;;;;;;;;;;5013513;28;20025;-61
2022/02/05 16:41:07;;;;;;;91.60;62.72;;;;;;;;;;5013730;28;20045;-61
2022/02/05 16:43:33;;;;;;;88.85;61.33;;;;;;;;;;5014522;28;20014;-60
2022/02/05 16:46:00;;;;;;;85.30;59.75;;;;;;;;;;5012548;28;20156;-61
2022/02/05 16:48:26;;;;;;;87.45;60.72;;;;;;;;;;5012712;28;20089;-61
2022/02/05 16:50:52;;;;;;;87.93;60.80;;;;;;;;;;5002853;28;20033;-61
2022/02/05 16:53:18;;;;;;;83.18;59.53;;;;;;;;;;4994907;28;20018;-61
2022/02/05 16:55:44;;;;;;;85.90;60.58;;;;;;;;;;5003591;28;20033;-61
2022/02/05 16:58:10;;;;;;;84.20;58.63;;;;;;;;;;5014497;28;20468;-61
2022/02/05 17:00:37;;;;;;;91.72;62.03;;;;;;;;;;5013071;28;20547;-61
2022/02/05 17:03:04;;;;;;;88.40;63.20;;;;;;;;;;5014488;28;20030;-61
2022/02/05 17:05:31;;;;;;;90.50;60.57;;;;;;;;;;5012139;28;20022;-60
2022/02/05 17:07:59;;;;;;;90.95;61.17;;;;;;;;;;5014183;28;20036;-60
2022/02/05 17:10:26;;;;;;;91.15;62.38;;;;;;;;;;5013202;28;20045;-61
2022/02/05 17:12:53;;;;;;;83.22;60.10;;;;;;;;;;5014284;28;20026;-60
2022/02/05 17:15:21;;;;;;;81.28;57.72;;;;;;;;;;5012958;28;20021;-60
2022/02/05 17:17:56;;;;;;;86.25;59.65;;;;;;;;;;5012076;28;20058;-60
2022/02/05 17:20:28;;;;;;;87.13;60.17;;;;;;;;;;5010455;28;20030;-60
2022/02/05 17:22:56;;;;;;;84.93;59.40;;;;;;;;;;5013845;28;20041;-60
2022/02/05 17:25:31;;;;;;;85.17;58.30;;;;;;;;;;5012573;28;20110;-61
2022/02/05 17:27:57;;;;;;;95.33;65.03;;;;;;;;;;5013065;28;20391;-61
2022/02/05 17:30:23;;;;;;;90.03;63.67;;;;;;;;;;5013307;28;20079;-60
2022/02/05 17:32:51;;;;;;;88.10;63.03;;;;;;;;;;5013639;28;20105;-60
2022/02/05 17:35:19;;;;;;;85.63;60.10;;;;;;;;;;5011967;28;20030;-61
2022/02/05 17:37:45;;;;;;;88.27;62.73;;;;;;;;;;5013566;28;20109;-60
2022/02/05 17:40:12;;;;;;;80.43;59.23;;;;;;;;;;5011933;28;20034;-61
2022/02/05 17:42:38;;;;;;;84.67;63.53;;;;;;;;;;5013457;28;20105;-61